createdAt,value
2022-12-18T00:01:47.085Z,-7.85
2022-12-18T00:04:23.532Z,-7.72
2022-12-18T00:06:58.444Z,-7.82
2022-12-18T00:09:39.778Z,-7.97
2022-12-18T00:14:48.471Z,-8.15
2022-12-18T00:17:21.854Z,-8.42
2022-12-18T00:19:54.661Z,-8.39
2022-12-18T00:22:28.874Z,-8.26
2022-12-18T00:25:01.617Z,-8.26
2022-12-18T00:27:34.427Z,-8.24
2022-12-18T00:30:08.210Z,-8.23
2022-12-18T00:32:40.985Z,-8.27
2022-12-18T00:35:13.984Z,-8.25
2022-12-18T00:37:48.383Z,-8.19
2022-12-18T00:40:21.192Z,-8.27
2022-12-18T00:42:59.208Z,-8.47
2022-12-18T00:45:33.052Z,-8.69
2022-12-18T00:48:06.507Z,-8.64
2022-12-18T00:50:39.456Z,-8.53
2022-12-18T00:53:13.815Z,-8.52
2022-12-18T00:55:46.984Z,-8.56
2022-12-18T00:58:19.816Z,-8.50
2022-12-18T01:00:52.604Z,-8.64
2022-12-18T01:03:25.694Z,-8.77
2022-12-18T01:05:58.508Z,-8.72
2022-12-18T01:08:32.769Z,-8.70
2022-12-18T01:11:09.734Z,-8.74
2022-12-18T01:13:43.263Z,-8.80
2022-12-18T01:16:17.982Z,-8.75
2022-12-18T01:18:54.639Z,-8.75
2022-12-18T01:21:27.639Z,-8.77
2022-12-18T01:24:01.843Z,-8.69
2022-12-18T01:26:35.735Z,-8.61
2022-12-18T01:29:08.538Z,-8.72
2022-12-18T01:31:41.588Z,-8.75
2022-12-18T01:34:14.404Z,-9.01
2022-12-18T01:36:48.163Z,-9.40
2022-12-18T01:39:22.351Z,-8.95
2022-12-18T01:42:04.901Z,-8.95
2022-12-18T01:45:00.841Z,-8.84
2022-12-18T01:47:40.965Z,-8.77
2022-12-18T01:50:16.729Z,-8.80
2022-12-18T01:52:52.218Z,-8.86
2022-12-18T01:55:30.489Z,-8.86
2022-12-18T01:58:03.381Z,-8.87
2022-12-18T02:00:36.616Z,-8.74
2022-12-18T02:03:09.867Z,-8.83
2022-12-18T02:05:49.181Z,-8.76
2022-12-18T02:08:28.164Z,-8.72
2022-12-18T02:11:09.185Z,-8.75
2022-12-18T02:13:48.535Z,-8.71
2022-12-18T02:16:31.370Z,-8.63
2022-12-18T02:19:10.361Z,-8.61
2022-12-18T02:21:52.266Z,-8.58
2022-12-18T02:24:36.953Z,-8.81
2022-12-18T02:27:12.774Z,-9.04
2022-12-18T02:29:55.986Z,-9.03
2022-12-18T02:32:33.592Z,-9.00
2022-12-18T02:35:09.394Z,-9.01
2022-12-18T02:37:45.481Z,-9.47
2022-12-18T02:40:19.261Z,-9.32
2022-12-18T02:42:53.492Z,-9.45
2022-12-18T02:45:26.629Z,-9.45
2022-12-18T02:47:59.425Z,-9.58
2022-12-18T02:50:37.492Z,-9.72
2022-12-18T02:53:20.032Z,-9.63
2022-12-18T02:56:03.628Z,-9.53
2022-12-18T02:58:49.410Z,-9.78
2022-12-18T03:01:40.548Z,-9.55
2022-12-18T03:04:19.147Z,-9.65
2022-12-18T03:06:57.867Z,-9.73
2022-12-18T03:09:34.975Z,-9.59
2022-12-18T03:12:26.437Z,-9.62
2022-12-18T03:15:17.292Z,-9.66
2022-12-18T03:17:56.749Z,-9.60
2022-12-18T03:20:36.160Z,-9.62
2022-12-18T03:23:13.882Z,-9.56
2022-12-18T03:25:48.363Z,-9.60
2022-12-18T03:28:23.909Z,-9.58
2022-12-18T03:31:07.713Z,-9.67
2022-12-18T03:33:46.221Z,-9.60
2022-12-18T03:36:20.411Z,-9.75
2022-12-18T03:38:53.881Z,-9.71
2022-12-18T03:41:34.670Z,-9.82
2022-12-18T03:44:31.688Z,-9.81
2022-12-18T03:47:10.018Z,-10.10
2022-12-18T03:49:49.633Z,-10.05
2022-12-18T03:52:28.584Z,-9.99
2022-12-18T03:55:04.167Z,-9.96
2022-12-18T03:57:37.830Z,-10.02
2022-12-18T04:00:13.186Z,-9.97
2022-12-18T04:03:03.814Z,-10.09
2022-12-18T04:05:45.418Z,-10.05
2022-12-18T04:08:19.391Z,-10.05
2022-12-18T04:10:59.453Z,-10.00
2022-12-18T04:13:37.380Z,-10.04
2022-12-18T04:16:14.328Z,-10.06
2022-12-18T04:18:50.743Z,-10.12
2022-12-18T04:21:25.778Z,-10.16
2022-12-18T04:23:59.429Z,-10.15
2022-12-18T04:26:32.412Z,-10.19
2022-12-18T04:29:25.509Z,-10.17
2022-12-18T04:31:58.615Z,-10.21
2022-12-18T04:34:34.208Z,-10.29
2022-12-18T04:37:07.029Z,-10.28
2022-12-18T04:39:40.098Z,-10.21
2022-12-18T04:42:19.459Z,-10.27
2022-12-18T04:44:52.243Z,-10.27
2022-12-18T04:47:25.025Z,-10.22
2022-12-18T04:49:59.222Z,-10.18
2022-12-18T04:52:33.180Z,-10.17
2022-12-18T04:55:06.637Z,-10.25
2022-12-18T04:57:39.418Z,-10.21
2022-12-18T05:00:13.572Z,-10.20
2022-12-18T05:02:46.510Z,-10.44
2022-12-18T05:05:20.790Z,-10.40
2022-12-18T05:07:53.523Z,-10.66
2022-12-18T05:10:26.272Z,-10.79
2022-12-18T05:13:02.129Z,-10.95
2022-12-18T05:15:35.741Z,-10.70
2022-12-18T05:18:08.500Z,-10.85
2022-12-18T05:20:42.638Z,-10.68
2022-12-18T05:23:15.428Z,-10.64
2022-12-18T05:25:52.375Z,-10.53
2022-12-18T05:28:26.500Z,-10.45
2022-12-18T05:31:01.225Z,-10.37
2022-12-18T05:33:35.004Z,-10.48
2022-12-18T05:36:12.138Z,-10.52
2022-12-18T05:38:44.979Z,-10.54
2022-12-18T05:41:17.990Z,-10.53
2022-12-18T05:43:50.750Z,-10.55
2022-12-18T05:46:23.696Z,-10.48
2022-12-18T05:48:56.463Z,-10.48
2022-12-18T05:51:30.564Z,-10.50
2022-12-18T05:54:03.356Z,-10.49
2022-12-18T05:56:36.666Z,-10.48
2022-12-18T05:59:09.696Z,-10.51
2022-12-18T06:01:42.549Z,-10.46
2022-12-18T06:04:15.609Z,-10.53
2022-12-18T06:06:49.839Z,-10.53
2022-12-18T06:09:22.573Z,-10.56
2022-12-18T06:11:55.440Z,-10.56
2022-12-18T06:14:28.343Z,-10.50
2022-12-18T06:17:01.225Z,-10.47
2022-12-18T06:19:34.043Z,-10.42
2022-12-18T06:22:08.129Z,-10.35
2022-12-18T06:24:40.898Z,-10.39
2022-12-18T06:27:14.454Z,-10.35
2022-12-18T06:29:47.523Z,-10.41
2022-12-18T06:32:20.284Z,-10.39
2022-12-18T06:34:53.972Z,-10.40
2022-12-18T06:37:28.241Z,-10.51
2022-12-18T06:40:01.850Z,-10.37
2022-12-18T06:42:34.616Z,-10.41
2022-12-18T06:45:08.379Z,-10.43
2022-12-18T06:47:41.131Z,-10.45
2022-12-18T06:50:14.975Z,-10.48
2022-12-18T06:52:49.143Z,-10.49
2022-12-18T06:55:21.880Z,-10.53
2022-12-18T06:57:54.939Z,-10.40
2022-12-18T07:00:27.743Z,-10.51
2022-12-18T07:03:00.534Z,-10.68
2022-12-18T07:05:33.254Z,-10.59
2022-12-18T07:08:07.530Z,-10.56
2022-12-18T07:10:46.966Z,-10.70
2022-12-18T07:13:21.052Z,-10.69
2022-12-18T07:15:53.768Z,-10.70
2022-12-18T07:18:26.486Z,-10.76
2022-12-18T07:20:59.251Z,-10.76
2022-12-18T07:23:34.473Z,-10.73
2022-12-18T07:26:09.622Z,-10.72
2022-12-18T07:28:44.655Z,-10.74
2022-12-18T07:31:20.021Z,-10.65
2022-12-18T07:33:54.864Z,-10.59
2022-12-18T07:36:27.734Z,-10.56
2022-12-18T07:39:01.970Z,-10.58
2022-12-18T07:41:35.088Z,-10.52
2022-12-18T07:44:15.384Z,-10.53
2022-12-18T07:46:48.154Z,-10.47
2022-12-18T07:49:21.139Z,-10.51
2022-12-18T07:51:56.993Z,-10.49
2022-12-18T07:54:31.111Z,-10.47
2022-12-18T07:57:03.877Z,-10.43
2022-12-18T07:59:37.092Z,-10.53
2022-12-18T08:02:10.646Z,-10.57
2022-12-18T08:04:45.262Z,-10.40
2022-12-18T08:07:18.098Z,-10.26
2022-12-18T08:09:52.183Z,-10.13
2022-12-18T08:12:24.958Z,-10.03
2022-12-18T08:14:57.770Z,-9.97
2022-12-18T08:17:30.493Z,-9.92
2022-12-18T08:20:03.791Z,-9.91
2022-12-18T08:22:37.349Z,-9.81
2022-12-18T08:25:11.855Z,-9.77
2022-12-18T08:27:44.566Z,-9.71
2022-12-18T08:30:17.645Z,-9.65
2022-12-18T08:32:53.621Z,-9.66
2022-12-18T08:35:26.424Z,-9.81
2022-12-18T08:37:59.160Z,-9.51
2022-12-18T08:40:33.252Z,-9.22
2022-12-18T08:43:23.813Z,-9.06
2022-12-18T08:45:57.344Z,-8.98
2022-12-18T08:48:30.185Z,-8.71
2022-12-18T08:51:03.185Z,-8.65
2022-12-18T08:53:36.122Z,-8.69
2022-12-18T08:56:10.672Z,-8.90
2022-12-18T08:58:43.944Z,-8.71
2022-12-18T09:01:16.899Z,-8.55
2022-12-18T09:03:50.135Z,-8.32
2022-12-18T09:06:24.669Z,-8.16
2022-12-18T09:08:59.078Z,-8.04
2022-12-18T09:11:34.815Z,-7.97
2022-12-18T09:14:07.942Z,-7.78
2022-12-18T09:16:40.903Z,-7.66
2022-12-18T09:19:13.630Z,-7.62
2022-12-18T09:21:48.381Z,-7.64
2022-12-18T09:24:24.985Z,-7.73
2022-12-18T09:26:59.673Z,-7.69
2022-12-18T09:29:32.631Z,-7.64
2022-12-18T09:32:07.988Z,-7.56
2022-12-18T09:34:40.756Z,-7.53
2022-12-18T09:37:13.544Z,-7.38
2022-12-18T09:39:46.337Z,-7.31
2022-12-18T09:42:24.562Z,-7.03
2022-12-18T09:44:58.072Z,-7.03
2022-12-18T09:47:37.451Z,-6.87
2022-12-18T09:50:25.333Z,-6.91
2022-12-18T09:53:04.278Z,-6.72
2022-12-18T09:55:41.299Z,-6.53
2022-12-18T09:58:32.860Z,-6.29
2022-12-18T10:01:12.113Z,-6.16
2022-12-18T10:03:45.043Z,-5.86
2022-12-18T10:06:23.419Z,-5.77
2022-12-18T10:09:03.991Z,-5.77
2022-12-18T10:11:45.751Z,-5.64
2022-12-18T10:14:25.078Z,-5.32
2022-12-18T10:17:04.725Z,-5.34
2022-12-18T10:19:50.083Z,-5.12
2022-12-18T10:22:46.078Z,-5.30
2022-12-18T10:25:24.778Z,-5.25
2022-12-18T10:28:02.175Z,-5.07
2022-12-18T10:30:36.288Z,-5.09
2022-12-18T10:33:14.226Z,-5.28
2022-12-18T10:35:52.441Z,-5.19
2022-12-18T10:38:28.039Z,-5.08
2022-12-18T10:41:03.244Z,-5.00
2022-12-18T10:43:37.434Z,-4.72
2022-12-18T10:46:21.649Z,-4.76
2022-12-18T10:48:57.050Z,-4.61
2022-12-18T10:51:32.347Z,-4.68
2022-12-18T10:54:07.398Z,-4.50
2022-12-18T10:56:40.420Z,-4.50
2022-12-18T10:59:15.482Z,-4.35
2022-12-18T11:01:52.667Z,-4.05
2022-12-18T11:04:27.807Z,-4.09
2022-12-18T11:07:01.789Z,-3.86
2022-12-18T11:09:36.280Z,-3.75
2022-12-18T11:12:19.249Z,-3.67
2022-12-18T11:14:54.430Z,-3.71
2022-12-18T11:17:34.401Z,-3.53
2022-12-18T11:20:21.494Z,-3.58
2022-12-18T11:22:59.369Z,-3.36
2022-12-18T11:25:35.118Z,-3.38
2022-12-18T11:28:28.375Z,-3.33
2022-12-18T11:31:18.839Z,-3.27
2022-12-18T11:34:29.140Z,-3.27
2022-12-18T11:37:05.473Z,-3.16
2022-12-18T11:39:43.040Z,-3.11
2022-12-18T11:42:24.902Z,-3.11
2022-12-18T11:45:02.921Z,-3.21
2022-12-18T11:47:43.636Z,-3.16
2022-12-18T11:50:20.687Z,-3.09
2022-12-18T11:52:58.237Z,-3.18
2022-12-18T11:55:42.582Z,-3.05
2022-12-18T11:58:31.710Z,-2.89
2022-12-18T12:01:17.418Z,-2.81
2022-12-18T12:04:19.279Z,-2.66
2022-12-18T12:07:04.710Z,-2.70
2022-12-18T12:09:49.105Z,-2.63
2022-12-18T12:12:48.659Z,-2.49
2022-12-18T12:15:41.231Z,-2.39
2022-12-18T12:18:25.013Z,-2.45
2022-12-18T12:21:05.069Z,-2.38
2022-12-18T12:23:47.372Z,-2.34
2022-12-18T12:26:29.494Z,-2.30
2022-12-18T12:29:16.622Z,-2.33
2022-12-18T12:32:06.597Z,-2.33
2022-12-18T12:34:48.538Z,-2.18
2022-12-18T12:37:32.094Z,-2.23
2022-12-18T12:40:26.923Z,-2.30
2022-12-18T12:43:16.614Z,-2.19
2022-12-18T12:45:55.645Z,-2.12
2022-12-18T12:48:40.189Z,-2.04
2022-12-18T12:51:19.056Z,-1.95
2022-12-18T12:53:55.698Z,-2.06
2022-12-18T12:56:40.641Z,-2.15
2022-12-18T12:59:21.106Z,-1.98
2022-12-18T13:02:00.274Z,-1.94
2022-12-18T13:04:38.379Z,-2.04
2022-12-18T13:07:18.314Z,-1.93
2022-12-18T13:10:28.732Z,-1.95
2022-12-18T13:13:04.221Z,-1.95
2022-12-18T13:15:41.670Z,-1.91
2022-12-18T13:18:21.460Z,-1.90
2022-12-18T13:21:07.037Z,-1.78
2022-12-18T13:23:41.246Z,-1.80
2022-12-18T13:26:33.205Z,-1.80
2022-12-18T13:29:08.689Z,-1.77
2022-12-18T13:32:20.942Z,-1.76
2022-12-18T13:35:32.644Z,-1.74
2022-12-18T13:38:23.493Z,-1.79
2022-12-18T13:40:58.775Z,-1.74
2022-12-18T13:43:35.671Z,-1.76
2022-12-18T13:46:21.154Z,-1.78
2022-12-18T13:48:57.632Z,-1.75
2022-12-18T13:51:34.263Z,-1.81
2022-12-18T13:54:18.639Z,-1.70
2022-12-18T13:56:52.253Z,-1.84
2022-12-18T13:59:27.107Z,-1.79
2022-12-18T14:02:04.312Z,-1.79
2022-12-18T14:04:38.214Z,-1.81
2022-12-18T14:07:15.807Z,-1.84
2022-12-18T14:09:58.136Z,-1.89
2022-12-18T14:12:54.736Z,-1.93
2022-12-18T14:15:34.217Z,-1.91
2022-12-18T14:18:23.055Z,-1.92
2022-12-18T14:20:59.452Z,-1.89
2022-12-18T14:23:35.687Z,-1.85
2022-12-18T14:26:24.740Z,-1.95
2022-12-18T14:28:58.303Z,-1.91
2022-12-18T14:31:33.211Z,-1.92
2022-12-18T14:34:07.299Z,-1.97
2022-12-18T14:36:40.859Z,-1.99
2022-12-18T14:39:19.323Z,-1.97
2022-12-18T14:41:52.333Z,-1.97
2022-12-18T14:44:25.344Z,-2.01
2022-12-18T14:46:58.709Z,-1.96
2022-12-18T14:49:35.089Z,-1.95
2022-12-18T14:52:19.624Z,-1.96
2022-12-18T14:54:54.236Z,-2.00
2022-12-18T14:57:36.869Z,-1.96
2022-12-18T15:00:19.303Z,-1.92
2022-12-18T15:02:55.178Z,-2.00
2022-12-18T15:05:31.375Z,-1.91
2022-12-18T15:08:04.430Z,-1.99
2022-12-18T15:10:49.118Z,-2.01
2022-12-18T15:13:25.299Z,-1.91
2022-12-18T15:16:03.764Z,-1.93
2022-12-18T15:18:44.096Z,-1.92
2022-12-18T15:21:20.902Z,-1.96
2022-12-18T15:23:55.174Z,-1.93
2022-12-18T15:26:39.161Z,-2.03
2022-12-18T15:29:21.828Z,-2.03
2022-12-18T15:32:02.171Z,-2.15
2022-12-18T15:34:36.006Z,-1.98
2022-12-18T15:37:10.525Z,-2.00
2022-12-18T15:39:43.700Z,-2.05
2022-12-18T15:42:34.637Z,-2.01
2022-12-18T15:45:10.471Z,-1.98
2022-12-18T15:47:43.857Z,-1.97
2022-12-18T15:50:17.103Z,-1.98
2022-12-18T15:52:54.021Z,-2.01
2022-12-18T15:55:44.641Z,-2.03
2022-12-18T15:58:17.626Z,-1.98
2022-12-18T16:00:50.625Z,-1.93
2022-12-18T16:03:23.428Z,-1.95
2022-12-18T16:05:59.353Z,-1.92
2022-12-18T16:08:34.585Z,-1.96
2022-12-18T16:11:07.933Z,-2.01
2022-12-18T16:13:41.097Z,-2.00
2022-12-18T16:16:14.042Z,-1.97
2022-12-18T16:18:46.866Z,-1.98
2022-12-18T16:21:19.686Z,-1.96
2022-12-18T16:23:54.194Z,-1.97
2022-12-18T16:26:27.780Z,-2.08
2022-12-18T16:29:01.018Z,-1.96
2022-12-18T16:31:33.816Z,-1.96
2022-12-18T16:34:14.895Z,-1.96
2022-12-18T16:36:48.304Z,-1.96
2022-12-18T16:39:22.728Z,-1.97
2022-12-18T16:41:56.999Z,-1.98
2022-12-18T16:44:31.024Z,-1.97
2022-12-18T16:47:03.815Z,-1.92
2022-12-18T16:49:38.326Z,-1.91
2022-12-18T16:52:11.249Z,-1.86
2022-12-18T16:54:45.429Z,-1.88
2022-12-18T16:57:20.382Z,-1.86
2022-12-18T16:59:56.036Z,-1.96
2022-12-18T17:02:30.875Z,-1.94
2022-12-18T17:05:04.134Z,-1.92
2022-12-18T17:07:37.028Z,-2.02
2022-12-18T17:10:11.931Z,-1.90
2022-12-18T17:12:44.761Z,-1.90
2022-12-18T17:15:17.605Z,-1.85
2022-12-18T17:17:51.595Z,-1.79
2022-12-18T17:20:24.471Z,-1.86
2022-12-18T17:22:57.293Z,-1.80
2022-12-18T17:25:32.614Z,-1.78
2022-12-18T17:28:06.141Z,-1.76
2022-12-18T17:30:39.180Z,-1.73
2022-12-18T17:33:13.047Z,-1.75
2022-12-18T17:35:47.076Z,-1.74
2022-12-18T17:38:21.361Z,-1.72
2022-12-18T17:40:55.592Z,-1.69
2022-12-18T17:43:28.654Z,-1.78
2022-12-18T17:46:03.557Z,-1.74
2022-12-18T17:48:36.672Z,-1.71
2022-12-18T17:51:13.079Z,-1.74
2022-12-18T17:53:46.138Z,-1.68
2022-12-18T17:56:23.819Z,-1.66
2022-12-18T17:58:56.792Z,-1.67
2022-12-18T18:01:29.732Z,-1.66
2022-12-18T18:04:02.656Z,-1.69
2022-12-18T18:06:35.632Z,-1.51
2022-12-18T18:09:16.427Z,-1.56
2022-12-18T18:12:08.574Z,-1.53
2022-12-18T18:14:41.627Z,-1.54
2022-12-18T18:17:15.136Z,-1.58
2022-12-18T18:19:49.808Z,-1.49
2022-12-18T18:22:31.012Z,-1.51
2022-12-18T18:25:04.616Z,-1.48
2022-12-18T18:27:41.685Z,-1.40
2022-12-18T18:30:15.196Z,-1.34
2022-12-18T18:32:47.979Z,-1.29
2022-12-18T18:35:52.305Z,-1.25
2022-12-18T18:38:14.712Z,-1.24
2022-12-18T18:40:47.667Z,-1.29
2022-12-18T18:43:24.682Z,-1.28
2022-12-18T18:45:59.116Z,-1.24
2022-12-18T18:48:35.585Z,-1.20
2022-12-18T18:51:14.701Z,-1.19
2022-12-18T18:53:54.859Z,-1.29
2022-12-18T18:56:56.238Z,-1.21
2022-12-18T18:59:23.068Z,-1.15
2022-12-18T19:02:05.023Z,-1.11
2022-12-18T19:04:45.108Z,-1.08
2022-12-18T19:07:29.463Z,-1.02
2022-12-18T19:10:05.600Z,-0.90
2022-12-18T19:12:56.450Z,-0.88
2022-12-18T19:15:30.951Z,-0.84
2022-12-18T19:18:03.952Z,-0.83
2022-12-18T19:20:37.150Z,-0.83
2022-12-18T19:23:10.014Z,-0.82
2022-12-18T19:25:43.190Z,-0.75
2022-12-18T19:28:21.835Z,-0.74
2022-12-18T19:31:00.322Z,-0.71
2022-12-18T19:33:44.080Z,-0.70
2022-12-18T19:36:21.151Z,-0.66
2022-12-18T19:38:57.144Z,-0.65
2022-12-18T19:41:32.827Z,-0.69
2022-12-18T19:44:07.671Z,-0.74
2022-12-18T19:46:43.120Z,-0.56
2022-12-18T19:49:18.230Z,-0.59
2022-12-18T19:51:54.588Z,-0.60
2022-12-18T19:54:27.406Z,-0.60
2022-12-18T19:57:00.251Z,-0.53
2022-12-18T19:59:33.075Z,-0.51
2022-12-18T20:02:07.745Z,-0.47
2022-12-18T20:04:41.114Z,-0.40
2022-12-18T20:07:14.033Z,-0.47
2022-12-18T20:09:47.057Z,-0.47
2022-12-18T20:12:21.061Z,-0.56
2022-12-18T20:14:53.955Z,-0.48
2022-12-18T20:17:28.496Z,-0.41
2022-12-18T20:20:02.372Z,-0.39
2022-12-18T20:22:36.089Z,-0.37
2022-12-18T20:25:10.349Z,-0.38
2022-12-18T20:27:43.162Z,-0.35
2022-12-18T20:30:16.697Z,-0.39
2022-12-18T20:32:51.213Z,-0.44
2022-12-18T20:35:27.988Z,-0.38
2022-12-18T20:38:02.210Z,-0.38
2022-12-18T20:40:36.341Z,-0.35
2022-12-18T20:43:12.481Z,-0.25
2022-12-18T20:45:49.698Z,-0.21
2022-12-18T20:48:26.722Z,-0.25
2022-12-18T20:51:01.357Z,-0.23
2022-12-18T20:53:37.497Z,-0.19
2022-12-18T20:56:20.117Z,-0.20
2022-12-18T20:58:58.043Z,-0.10
2022-12-18T21:01:32.023Z,-0.18
2022-12-18T21:04:06.248Z,-0.16
2022-12-18T21:06:39.213Z,-0.13
2022-12-18T21:09:11.971Z,-0.11
2022-12-18T21:12:02.257Z,-0.17
2022-12-18T21:14:35.062Z,-0.13
2022-12-18T21:17:08.145Z,-0.10
2022-12-18T21:19:42.545Z,-0.14
2022-12-18T21:22:17.219Z,-0.13
2022-12-18T21:24:50.236Z,-0.13
2022-12-18T21:27:23.141Z,-0.18
2022-12-18T21:29:56.351Z,-0.11
2022-12-18T21:32:33.462Z,-0.22
2022-12-18T21:35:08.956Z,-0.12
2022-12-18T21:37:41.853Z,-0.18
2022-12-18T21:40:14.945Z,-0.17
2022-12-18T21:43:05.224Z,-0.16
2022-12-18T21:45:38.426Z,-0.16
2022-12-18T21:48:12.948Z,-0.15
2022-12-18T21:50:47.418Z,-0.14
2022-12-18T21:53:20.207Z,-0.11
2022-12-18T21:55:59.024Z,-0.11
2022-12-18T21:58:31.981Z,-0.15
2022-12-18T22:01:05.101Z,-0.13
2022-12-18T22:03:38.008Z,-0.11
2022-12-18T22:06:12.979Z,-0.18
2022-12-18T22:08:46.005Z,-0.14
2022-12-18T22:11:19.370Z,-0.11
2022-12-18T22:13:54.244Z,-0.10
2022-12-18T22:16:27.073Z,-0.09
2022-12-18T22:19:00.423Z,-0.13
2022-12-18T22:21:39.599Z,-0.06
2022-12-18T22:24:15.327Z,-0.06
2022-12-18T22:26:49.789Z,-0.05
2022-12-18T22:29:42.754Z,-0.05
2022-12-18T22:32:17.817Z,-0.06
2022-12-18T22:35:12.780Z,-0.09
2022-12-18T22:37:49.663Z,-0.02
2022-12-18T22:40:25.376Z,-0.03
2022-12-18T22:42:59.315Z,-0.01
2022-12-18T22:45:32.158Z,-0.02
2022-12-18T22:48:07.166Z,0.01
2022-12-18T22:50:40.188Z,-0.01
2022-12-18T22:53:14.293Z,-0.05
2022-12-18T22:55:47.035Z,0.02
2022-12-18T22:58:19.798Z,0.04
2022-12-18T23:00:52.592Z,0.04
2022-12-18T23:03:25.567Z,0.04
2022-12-18T23:06:04.420Z,0.05
2022-12-18T23:08:38.645Z,0.09
2022-12-18T23:11:12.500Z,0.06
2022-12-18T23:13:45.682Z,0.02
2022-12-18T23:16:20.624Z,0.06
2022-12-18T23:18:55.116Z,0.09
2022-12-18T23:21:27.926Z,0.10
2022-12-18T23:24:03.261Z,0.10
2022-12-18T23:26:36.342Z,0.10
2022-12-18T23:29:09.342Z,0.04
2022-12-18T23:31:42.549Z,0.11
2022-12-18T23:34:16.805Z,0.13
2022-12-18T23:36:53.247Z,0.15
2022-12-18T23:39:30.520Z,0.15
2022-12-18T23:42:03.356Z,0.17
2022-12-18T23:44:36.081Z,0.17
2022-12-18T23:47:08.883Z,0.16
2022-12-18T23:49:41.789Z,0.20
2022-12-18T23:52:14.807Z,0.18
2022-12-18T23:54:49.228Z,0.19
2022-12-18T23:57:22.027Z,0.21
2022-12-18T23:59:57.872Z,0.15
